Saint Augustine, FL

3:53 PM EDT on August 31, 2015 (GMT -0400)
Saint Augustine South | | Change Station
CLOSE
Current Station
Personal Weather Station
Location: St. Augustine, FL
Elevation: 30 ft
Nearby Weather Stations

Elev 30 ft 29.84 °N, 81.32 °W | Updated 5 minutes ago

Mostly Cloudy
Mostly Cloudy
87.4 °F
Feels Like 98 °F
N
0.0
Wind Variable Wind from ESE

Today
High -- | Low -- °F
--% Chance of Precip.
Yesterday
High -- | Low -- °F
Precip. -- in
7:01 AM 7:48 PM
Waning Gibbous, 94% visible
Pressure 30.06 in
Visibility 10.0 miles
Clouds Mostly Cloudy 1700 ft
Mostly Cloudy 4000 ft
Mostly Cloudy 6000 ft
Heat Index 98 °F
Dew Point 76 °F
Humidity 68%
Rainfall 0.00 in
Snow Depth Not available.
UV 6 out of 12
Pollen 3.00 out of 12
Air Quality Not available.
Flu Activity Not available.
SPECI KSGJ 311914Z 08006KT 10SM BKN017 BKN040 BKN060 29/26 A3006 RMK AO2 LTG DSNT N CIG 014V028
Pressure 30.06 in
Visibility 10.0 miles
Clouds Mostly Cloudy 1700 ft
Mostly Cloudy 4000 ft
Mostly Cloudy 6000 ft
Heat Index 98 °F
Dew Point 76 °F
Humidity 68%
Rainfall 0.00 in
Snow Depth Not available.
UV 6 out of 12
Pollen 3.00 out of 12
Air Quality Not available.
Flu Activity Not available.
SPECI KSGJ 311914Z 08006KT 10SM BKN017 BKN040 BKN060 29/26 A3006 RMK AO2 LTG DSNT N CIG 014V028

10-Day Weather Forecast

×

Almanac

Astronomy

Aug. 31, 2015 Rise Set
Actual Time
Civil Twilight
Nautical Twilight
Astronomical Twilight
Moon
Length of Visible Light
Length of Day
Tomorrow will be .
, % of the Moon is Illuminated

Today's Extremes

State Highs State Lows

Community

WunderPhotos

Upload Photos

1,851,346 photos uploaded!

WunderBlogs® & News

Nearby

Air Quality

  Air Quality AQ Index Pollutant
Not available.

Snow Depth

Station Depth Elevation

Earthquake Activity

City Distance Mag. Time & Date
Minimum magnitude displayed is 2.5.

Coastal Water Temperatures

Place Temperature

Stations

Nearby Weather Stations

Station Location Temp. Windchill Dew Point Humidity Wind Precip. Elev Updated Type